Weather observations for the past three days for
Brunswick, Malcolm McKinnon Airport
Imperial (Metric)
Date Time (edt) Wind (mph) Vis. (mi.) Weather Sky Cond. Temperature (ºF) Relative Humidity Wind Chill (°F) Heat Index (°F) Pressure Precipitation (in)
Air Dwpt 6 hour altimeter (in) sea level (mb) 1 hr 3 hr 6 hr
Max. Min.
05 16:55 SE 14 G 22 10.00 Fair CLR 77 57.2 51% 79 29.99 0.0
05 16:35 SE 14 G 20 10.00 Fair CLR 77 57.2 51% 79 29.99 0.0
05 16:15 SE 14 10.00 Fair CLR 77 57.2 51% 79 30 0.0
05 15:35 E 14 10.00 Fair CLR 78.8 55.4 45% 79 30.02 0.0
05 15:15 SE 14 10.00 Fair CLR 77 53.6 44% 78 30.02 0.0
05 14:55 SE 13 10.00 Fair CLR 77 53.6 44% 78 30.03 0.0
05 14:35 SE 15 G 21 10.00 Fair CLR 77 55.4 47% 79 30.03 0.0
05 14:15 SE 13 10.00 Fair CLR 78.8 55.4 45% 79 30.03 0.0
05 13:55 SE 13 10.00 Fair CLR 77 57.2 51% 79 30.04 0.0
05 13:35 SE 15 10.00 Fair CLR 77 57.2 51% 79 30.03 0.0
05 13:15 SE 12 10.00 Fair CLR 78.8 57.2 48% 80 30.04 0.0
05 12:55 SE 12 10.00 Fair CLR 77 55.4 47% 79 30.05 0.0
05 12:35 SE 10 10.00 Fair CLR 77 57.2 51% 79 30.05 0.0
05 12:15 SE 9 10.00 Fair CLR 77 57.2 51% 79 30.05 0.0
05 11:55 SE 10 10.00 Fair CLR 77 57.2 51% 79 30.05 0.0
05 11:35 SE 12 10.00 Fair CLR 77 57.2 51% 79 30.05 0.0
05 11:15 SE 9 10.00 Fair CLR 75.2 55.4 50% 78 30.05 0.0
05 10:55 SE 10 10.00 Fair CLR 75.2 55.4 50% 78 30.05 0.0
05 10:35 SE 8 10.00 Fair CLR 75.2 55.4 50% 78 30.05 0.0
05 10:15 SE 9 10.00 Fair CLR 75.2 55.4 50% 78 30.04 0.0
05 09:55 Vrbl 7 10.00 Fair CLR 75.2 57.2 54% 78 30.04 0.0
05 09:35 SE 9 10.00 Fair CLR 75.2 57.2 54% 78 30.04 0.0
05 09:15 SE 9 10.00 Fair CLR 75.2 57.2 54% 78 30.04 0.0
05 08:55 SE 9 10.00 Fair CLR 75.2 57.2 54% 78 30.03 0.0
05 08:35 SE 7 10.00 Fair CLR 73.4 57.2 57% 30.03 0.0
05 08:15 S 6 10.00 Fair CLR 71.6 57.2 61% 30.02 0.0
05 07:55 Calm 10.00 Fair CLR 68 60.8 78% 30.02 0.0
05 07:35 Calm 10.00 Fair CLR 64.4 59 83% 30.02 0.0
05 07:15 Calm 10.00 Fair CLR 62.6 57.2 83% 30.01 0.0
05 06:55 Calm 10.00 Fair CLR 62.6 57.2 83% 30.01 0.0
05 06:35 Calm 10.00 Fair CLR 62.6 57.2 83% 30.01 0.0
05 06:15 SE 3 10.00 Fair CLR 64.4 57.2 78% 30.01 0.0
05 05:55 Calm 10.00 Fair CLR 64.4 57.2 78% 29.99 0.0
05 05:35 Calm 10.00 Fair CLR 64.4 57.2 78% 29.99 0.0
05 05:15 Calm 10.00 Fair CLR 66.2 55.4 68% 29.99 0.0
05 04:55 S 5 10.00 Fair CLR 68 55.4 64% 29.99 0.0
05 04:35 S 3 10.00 Fair CLR 69.8 53.6 57% 29.98 0.0
05 04:10 S 5 10.00 Fair CLR 69.8 53.6 57% 29.98 0.0
05 04:00 S 6 10.00 Fair CLR 69.8 53.6 57% 29.98 0.0
05 03:35 S 8 10.00 Fair CLR 69.8 53.6 57% 29.98 0.0
05 03:15 S 8 10.00 Fair CLR 69.8 51.8 53% 29.99 0.0
05 02:55 SE 8 10.00 Fair CLR 69.8 51.8 53% 29.99 0.0
05 02:35 S 9 10.00 Fair CLR 69.8 51.8 53% 30 0.0
05 02:15 S 7 10.00 Fair CLR 69.8 51.8 53% 30.01 0.0
05 01:55 SE 13 10.00 Fair CLR 69.8 51.8 53% 30.01 0.0
05 01:35 SE 12 G 17 10.00 Fair CLR 69.8 51.8 53% 30.01 0.0
05 01:15 SE 12 10.00 Fair CLR 69.8 51.8 53% 30.02 0.0
05 00:55 SE 13 10.00 Fair CLR 69.8 51.8 53% 30.03 0.0
05 00:30 SE 12 10.00 Fair CLR 69.8 50 50% 30.03 0.0
05 00:15 SE 12 10.00 Fair CLR 69.8 51.8 53% 30.03 0.0
04 23:55 SE 10 10.00 Fair CLR 69.8 51.8 53% 30.04 0.0
04 23:35 SE 14 10.00 Fair CLR 69.8 51.8 53% 30.03 0.0
04 23:15 SE 14 10.00 Fair CLR 69.8 51.8 53% 30.03 0.0
04 22:55 SE 15 G 21 10.00 Fair CLR 69.8 53.6 57% 30.03 0.0
04 22:35 SE 14 10.00 Fair CLR 69.8 53.6 57% 30.02 0.0
04 22:15 SE 10 G 16 10.00 Fair CLR 69.8 51.8 53% 30.03 0.0
04 21:55 SE 10 10.00 Fair CLR 69.8 51.8 53% 30.02 0.0
04 21:35 SE 10 G 16 10.00 Fair CLR 69.8 51.8 53% 30.03 0.0
04 21:15 SE 12 10.00 Fair CLR 69.8 51.8 53% 30.02 0.0
04 20:55 SE 9 10.00 Fair CLR 69.8 53.6 57% 30.02 0.0
04 20:35 SE 9 10.00 Fair CLR 69.8 53.6 57% 30.02 0.0
04 20:15 SE 7 10.00 Fair CLR 69.8 51.8 53% 30.02 0.0
04 19:55 SE 8 10.00 Fair CLR 71.6 51.8 50% 30.02 0.0
04 19:35 E 7 10.00 Fair CLR 71.6 50 47% 30.01 0.0
04 19:15 E 10 10.00 Fair CLR 73.4 50 44% 30.01 0.0
04 18:55 E 10 10.00 Fair CLR 73.4 48.2 41% 30.01 0.0
04 18:35 SE 10 10.00 Fair CLR 73.4 48.2 41% 30.02 0.0
04 18:15 E 9 10.00 Fair CLR 73.4 46.4 38% 30.02 0.0
04 17:55 SE 10 10.00 Fair CLR 73.4 46.4 38% 30.02 0.0
04 17:35 SE 12 10.00 Fair CLR 75.2 44.6 34% 77 30.02 0.0
04 17:15 E 12 10.00 Fair CLR 75.2 44.6 34% 77 30.02 0.0
04 16:55 E 12 10.00 Fair CLR 73.4 42.8 33% 30.02 0.0
04 16:35 SE 10 10.00 Fair CLR 75.2 41 29% 77 30.02 0.0
04 16:15 E 9 G 15 10.00 Fair CLR 75.2 41 29% 77 30.02 0.0
04 15:55 E 12 10.00 Fair CLR 75.2 41 29% 77 30.03 0.0
04 15:35 E 12 10.00 Fair CLR 75.2 41 29% 77 30.04 0.0
04 15:15 SE 12 10.00 Fair CLR 77 41 28% 78 30.05 0.0
04 14:55 SE 13 10.00 Fair CLR 75.2 39.2 27% 77 30.05 0.0
04 14:35 SE 12 G 17 10.00 Fair CLR 77 39.2 26% 77 30.06 0.0
04 14:15 E 13 10.00 Fair CLR 77 39.2 26% 77 30.06 0.0
04 13:55 SE 12 10.00 Fair CLR 75.2 39.2 27% 77 30.06 0.0
04 13:35 E 12 G 17 10.00 Fair CLR 75.2 39.2 27% 77 30.06 0.0
04 13:15 E 10 10.00 Fair CLR 75.2 41 29% 77 30.06 0.0
04 12:55 SE 13 10.00 Fair CLR 75.2 39.2 27% 77 30.07 0.0
04 12:35 SE 9 10.00 Fair CLR 75.2 42.8 31% 77 30.08 0.0
04 12:15 E 12 10.00 Fair CLR 75.2 42.8 31% 77 30.07 0.0
04 11:55 SE 9 10.00 Fair CLR 75.2 42.8 31% 77 30.08 0.0
04 11:35 SE 9 10.00 Fair CLR 75.2 42.8 31% 77 30.08 0.0
04 11:15 S 9 10.00 A Few Clouds FEW055 73.4 42.8 33% 30.08 0.0
04 10:55 S 7 10.00 Partly Cloudy SCT055 73.4 42.8 33% 30.08 0.0
04 10:35 S 8 10.00 A Few Clouds FEW050 FEW055 73.4 42.8 33% 30.08 0.0
04 10:15 Calm 10.00 Fair CLR 71.6 44.6 38% 30.08 0.0
04 09:55 Calm 10.00 Fair CLR 71.6 48.2 44% 30.08 0.0
04 09:35 NW 3 10.00 Fair CLR 71.6 51.8 50% 30.08 0.0
04 09:15 Calm 10.00 Fair CLR 69.8 55.4 60% 30.08 0.0
04 08:55 Calm 10.00 Fair CLR 68 59 73% 30.08 0.0
04 08:35 Calm 10.00 Fair CLR 66.2 59 78% 30.07 0.0
04 08:15 Calm 10.00 Fair CLR 64.4 59 83% 30.07 0.0
04 07:55 Calm 10.00 Fair CLR 60.8 59 94% 30.06 0.0
04 07:35 N 5 10.00 Fair CLR 59 57.2 94% 30.06 0.0
04 07:15 Calm 9.00 Fair CLR 55.4 55.4 100% 30.06 0.0
04 06:55 Calm 5.00 Fog/Mist CLR 57.2 55.4 94% 30.05 0.0
04 06:35 Calm 9.00 Fair CLR 55.4 55.4 100% 30.05 0.0
04 06:15 Calm 9.00 Fair CLR 55.4 55.4 100% 30.04 0.0
04 05:55 N 3 3.00 Fog/Mist CLR 57.2 55.4 94% 30.04 0.0
04 05:15 Calm 10.00 Fair CLR 57.2 55.4 94% 30.05 0.0
04 04:55 Calm 10.00 Fair CLR 57.2 55.4 94% 30.05 0.0
04 04:35 Calm 10.00 Fair CLR 59 55.4 88% 30.05 0.0
04 04:15 Calm 10.00 Fair CLR 57.2 53.6 88% 30.06 0.0
04 03:55 Calm 10.00 Fair CLR 59 53.6 82% 30.06 0.0
04 03:35 Calm 10.00 Fair CLR 59 53.6 82% 30.05 0.0
04 03:15 NW 3 10.00 Fair CLR 59 53.6 82% 30.06 0.0
04 02:55 Calm 10.00 Fair CLR 60.8 53.6 77% 30.06 0.0
04 02:35 Calm 10.00 Fair CLR 62.6 53.6 73% 30.07 0.0
04 02:15 Calm 10.00 Fair CLR 68 50 53% 30.07 0.0
04 01:55 S 5 10.00 Fair CLR 68 51.8 56% 30.07 0.0
04 01:35 S 5 10.00 Fair CLR 68 51.8 56% 30.07 0.0
04 01:15 S 6 10.00 Fair CLR 68 53.6 60% 30.08 0.0
04 00:55 S 7 10.00 Fair CLR 68 51.8 56% 30.08 0.0
04 00:35 SE 7 10.00 Fair CLR 68 53.6 60% 30.08 0.0
04 00:15 S 7 10.00 Fair CLR 68 53.6 60% 30.08 0.0
03 23:55 SE 7 10.00 Fair CLR 68 51.8 56% 30.08 0.0
03 23:35 SE 7 10.00 Fair CLR 68 51.8 56% 30.08 0.0
03 23:15 SE 6 10.00 Fair CLR 68 51.8 56% 30.09 0.0
03 22:55 SE 7 10.00 Fair CLR 66.2 50 56% 30.08 0.0
03 22:35 SE 6 10.00 Fair CLR 66.2 50 56% 30.08 0.0
03 22:15 SE 6 10.00 Fair CLR 66.2 50 56% 30.08 0.0
03 21:55 SE 8 10.00 Fair CLR 66.2 50 56% 30.07 0.0
03 21:35 SE 8 10.00 Fair CLR 68 48.2 49% 30.06 0.0
03 21:15 SE 8 10.00 A Few Clouds FEW060 66.2 48.2 52% 30.06 0.0
03 20:55 SE 8 10.00 Fair CLR 68 50 53% 30.06 0.0
03 20:35 SE 10 10.00 Fair CLR 68 48.2 49% 30.05 0.0
03 20:15 SE 9 10.00 Fair CLR 68 48.2 49% 30.05 0.0
03 19:55 SE 9 10.00 Fair CLR 68 48.2 49% 30.05 0.0
03 19:35 SE 9 10.00 Fair CLR 68 48.2 49% 30.04 0.0
03 19:15 SE 12 10.00 Fair CLR 69.8 48.2 46% 30.05 0.0
03 18:55 SE 9 10.00 Fair CLR 69.8 46.4 43% 30.05 0.0
03 18:35 E 10 10.00 Fair CLR 69.8 46.4 43% 30.05 0.0
03 18:15 SE 10 10.00 Fair CLR 68 48.2 49% 30.05 0.0
03 17:55 SE 10 10.00 Fair CLR 69.8 48.2 46% 30.05 0.0
03 17:35 E 12 10.00 Fair CLR 69.8 50 50% 30.05 0.0
03 17:15 E 9 10.00 Fair CLR 69.8 48.2 46% 30.05 0.0
03 16:55 E 13 10.00 Fair CLR 69.8 50 50% 30.05 0.0
03 16:35 E 13 10.00 Fair CLR 69.8 48.2 46% 30.05 0.0
03 16:15 SE 13 10.00 Fair CLR 69.8 50 50% 30.06 0.0
03 15:55 E 10 10.00 Fair CLR 69.8 48.2 46% 30.07 0.0
03 15:35 SE 9 G 17 10.00 Fair CLR 69.8 50 50% 30.07 0.0
03 15:15 SE 12 10.00 Fair CLR 69.8 50 50% 30.09 0.0
03 14:35 E 12 10.00 Fair CLR 69.8 51.8 53% 30.1 0.0
03 14:15 NE 10 10.00 Fair CLR 69.8 51.8 53% 30.1 0.0
03 13:55 E 9 10.00 Fair CLR 69.8 51.8 53% 30.11 0.0
03 13:35 NE 8 10.00 Fair CLR 69.8 51.8 53% 30.11 0.0
03 13:15 E 10 10.00 Fair CLR 68 53.6 60% 30.11 0.0
03 12:55 E 8 G 15 10.00 Fair CLR 68 51.8 56% 30.13 0.0
03 12:35 E 9 G 16 10.00 Fair CLR 69.8 51.8 53% 30.13 0.0
03 12:15 NE 9 G 16 10.00 Fair CLR 69.8 51.8 53% 30.13 0.0
03 11:55 NE 8 G 15 10.00 Fair CLR 69.8 53.6 57% 30.12 0.0
03 11:35 E 12 10.00 A Few Clouds FEW024 68 53.6 60% 30.12 0.0
03 11:15 E 12 10.00 Mostly Cloudy BKN023 68 55.4 64% 30.12 0.0
03 10:55 NE 9 10.00 Partly Cloudy SCT021 68 55.4 64% 30.12 0.0
03 10:35 NE 8 10.00 A Few Clouds FEW020 66.2 55.4 68% 30.11 0.0
03 10:15 N 8 10.00 A Few Clouds FEW019 64.4 55.4 73% 30.11 0.0
03 09:55 N 9 10.00 Fair CLR 64.4 55.4 73% 30.1 0.0
03 09:35 N 6 G 13 10.00 Fair CLR 62.6 55.4 77% 30.11 0.0
03 09:15 N 7 10.00 Fair CLR 60.8 55.4 83% 30.1 0.0
03 08:35 N 6 10.00 Fair CLR 59 55.4 88% 30.09 0.0
03 08:15 N 5 10.00 Fair CLR 57.2 55.4 94% 30.08 0.0
03 07:55 N 7 10.00 A Few Clouds FEW003 57.2 55.4 94% 30.08 0.0
03 07:35 N 5 10.00 Partly Cloudy SCT003 55.4 55.4 100% 30.07 0.0
03 07:15 N 8 10.00 A Few Clouds FEW003 55.4 53.6 94% 30.07 0.0
03 06:55 N 6 10.00 Mostly Cloudy BKN003 55.4 53.6 94% 30.06 0.0
03 06:35 N 6 10.00 Mostly Cloudy BKN003 55.4 53.6 94% 30.06 0.0
03 06:15 N 6 10.00 Mostly Cloudy BKN004 55.4 53.6 94% 30.05 0.0
03 05:55 N 7 10.00 A Few Clouds FEW006 55.4 53.6 94% 30.04 0.0
03 05:35 N 7 10.00 Fair CLR 55.4 53.6 94% 30.03 0.0
03 05:15 N 8 10.00 Fair CLR 55.4 53.6 94% 30.03 0.0
03 04:50 NW 8 10.00 Fair CLR 55.4 55.4 100% 30.02 0.0
03 04:35 NW 5 10.00 Fair CLR 55.4 55.4 100% 30.02 0.0
03 04:15 NW 5 10.00 A Few Clouds FEW034 57.2 55.4 94% 30.02 0.0
03 03:55 NW 7 10.00 A Few Clouds FEW033 57.2 55.4 94% 30.02 0.0
03 03:35 NW 6 10.00 Partly Cloudy SCT038 57.2 55.4 94% 30.01 0.0
03 03:15 NW 6 10.00 Partly Cloudy SCT039 57.2 55.4 94% 30.01 0.0
03 02:55 NW 6 10.00 Partly Cloudy SCT042 59 55.4 88% 30.01 0.0
03 02:35 N 7 10.00 Mostly Cloudy BKN044 BKN055 59 57.2 94% 30 0.0
03 02:15 N 6 10.00 Mostly Cloudy FEW006 BKN046 BKN055 59 57.2 94% 30 0.0
03 01:55 N 7 10.00 Mostly Cloudy BKN047 BKN055 59 57.2 94% 30 0.0
03 01:35 NW 3 10.00 A Few Clouds FEW046 57.2 55.4 94% 30 0.0
03 01:15 NW 5 10.00 Fair CLR 59 55.4 88% 30 0.0
03 00:55 N 5 10.00 Fair CLR 59 57.2 94% 29.99 0.0
03 00:35 NW 6 10.00 Fair CLR 59 57.2 94% 29.98 0.0
03 00:15 N 7 10.00 A Few Clouds FEW016 59 57.2 94% 29.98 0.0
02 23:55 NW 7 10.00 Mostly Cloudy FEW007 FEW011 BKN016 59 57.2 94% 29.98 0.0
02 23:35 NW 8 10.00 Overcast BKN008 OVC014 59 57.2 94% 29.98 0.0
02 23:15 NW 5 10.00 Mostly Cloudy FEW007 BKN012 60.8 57.2 88% 29.98 0.0
02 22:55 N 6 10.00 A Few Clouds FEW011 59 57.2 94% 29.96 0.0
02 22:35 Calm 10.00 Fair CLR 60.8 57.2 88% 29.95 0.0
02 22:15 N 3 10.00 A Few Clouds FEW014 FEW043 59 57.2 94% 29.95 0.0
02 21:55 N 6 10.00 Partly Cloudy SCT014 SCT043 60.8 57.2 88% 29.94 0.0
02 21:35 N 7 10.00 Mostly Cloudy BKN013 BKN050 60.8 57.2 88% 29.93 0.0
02 21:15 N 7 10.00 Mostly Cloudy FEW026 BKN050 60.8 57.2 88% 29.92 0.0
02 20:55 N 9 10.00 Mostly Cloudy FEW009 SCT013 BKN021 60.8 59 94% 29.91 0.0
02 20:35 N 9 G 16 10.00 Overcast BKN008 OVC013 62.6 59 88% 29.9 0.0
02 20:15 N 10 10.00 Overcast BKN009 BKN013 OVC036 60.8 59 94% 29.9 0.0
02 19:35 N 12 10.00 Mostly Cloudy FEW010 SCT024 BKN038 62.6 59 88% 29.87 0.0
02 19:15 N 9 10.00 Overcast FEW008 SCT014 OVC023 62.6 60.8 94% 29.87 0.0
02 18:55 N 12 G 18 3.00 Fog/Mist SCT007 OVC012 60.8 59 94% 29.87 0.0
02 18:35 N 14 7.00 Overcast SCT010 BKN015 OVC019 62.6 59 88% 29.85 0.0
02 18:15 NW 10 G 17 9.00 Overcast SCT008 OVC015 62.6 59 88% 29.85 0.0
02 17:55 N 14 9.00 Overcast OVC007 62.6 60.8 94% 29.84 0.0
02 17:35 NW 8 G 15 10.00 Overcast SCT008 OVC014 62.6 60.8 94% 29.83 0.0
02 17:15 N 13 G 20 9.00 Overcast BKN009 OVC014 62.6 60.8 94% 29.82 0.0
Date Time (edt) Wind (mph) Vis. (mi.) Weather Sky Cond. Air Dwpt Max. Min. Relative Humidity Wind Chill (°F) Heat Index (°F) altimeter (in) sea level (mb) 1 hr 3 hr 6 hr
6 hour
Temperature (ºF) Pressure Precipitation (in)